WXM80 ListenWXM80 Stop

You find our weather info also at:

UK Metoffice

WeatherCloud

Weather Underground

Northeastern Weather Network

AWEKAS

Citizen Weather Observer Program (CWOP)

HAMweather, WeatherForYou, PWS Weather


Weather Underground History page Text

Daily Summary for June 15, 2016 Units:  English    Metric   Both
« Previous Day
Next Day »
Daily Weekly Monthly Yearly Custom
  High: Low: Average:
Temperature: 89.4 °F 55.7 °F 72.8 °F
Dew Point: 60.7 °F 51.1 °F 55.6 °F
Humidity: 89 % 29 % 59 %
Wind Speed: 5.6 mph 0.0 mph 1.5 mph
Wind Gust: 11.0 mph - -
Wind:- - SW
Pressure: 29.96 in 29.81 in -
Precipitation: 0.00 in    
Historical Graphs
 
 
Tabular Data for June 15, 2016
Time Temperature Dew Point Pressure Wind Wind Speed Wind Gust Humidity Rainfall Rate (Hourly)
00:00 62.0 °F 53.2 °F 29.93 in NW 0.2 mph 1.2 mph 73 % 0.00 in
00:05 61.9 °F 53.5 °F 29.93 in NW 1.0 mph 2.3 mph 74 % 0.00 in
00:10 61.9 °F 53.5 °F 29.93 in WSW 0.7 mph 2.3 mph 74 % 0.00 in
00:15 61.8 °F 53.4 °F 29.93 in SW 1.6 mph 3.5 mph 74 % 0.00 in
00:20 61.9 °F 53.1 °F 29.93 in SW 1.8 mph 3.5 mph 73 % 0.00 in
00:25 62.0 °F 53.2 °F 29.93 in SW 2.3 mph 3.5 mph 73 % 0.00 in
00:31 62.1 °F 53.0 °F 29.93 in SW 1.8 mph 3.5 mph 72 % 0.00 in
00:36 62.2 °F 52.7 °F 29.93 in SW 2.2 mph 3.5 mph 71 % 0.00 in
00:41 62.5 °F 53.0 °F 29.93 in SW 1.2 mph 2.3 mph 71 % 0.00 in
00:51 62.6 °F 52.7 °F 29.93 in SW 0.4 mph 1.2 mph 70 % 0.00 in
01:01 62.7 °F 53.2 °F 29.93 in SW 2.1 mph 3.5 mph 71 % 0.00 in
01:06 62.7 °F 52.8 °F 29.93 in SW 2.0 mph 3.5 mph 70 % 0.00 in
01:11 62.8 °F 53.3 °F 29.93 in WSW 0.8 mph 2.3 mph 71 % 0.00 in
01:16 62.9 °F 53.4 °F 29.93 in WSW 1.6 mph 2.3 mph 71 % 0.00 in
01:22 63.0 °F 53.4 °F 29.93 in WSW 1.7 mph 3.5 mph 71 % 0.00 in
01:27 63.1 °F 53.9 °F 29.93 in WSW 1.1 mph 2.3 mph 72 % 0.00 in
01:42 63.1 °F 54.7 °F 29.93 in SW 1.0 mph 3.5 mph 74 % 0.00 in
01:47 63.1 °F 54.7 °F 29.93 in SW 1.0 mph 2.3 mph 74 % 0.00 in
01:52 63.0 °F 54.9 °F 29.93 in SW 1.8 mph 3.5 mph 75 % 0.00 in
01:57 63.0 °F 54.9 °F 29.93 in SW 1.1 mph 2.3 mph 75 % 0.00 in
02:02 62.9 °F 54.9 °F 29.93 in SW 0.6 mph 1.2 mph 75 % 0.00 in
02:07 62.8 °F 54.8 °F 29.93 in SW 1.1 mph 1.2 mph 75 % 0.00 in
02:13 62.7 °F 54.7 °F 29.93 in SW 0.4 mph 2.3 mph 75 % 0.00 in
02:23 62.5 °F 54.5 °F 29.92 in SW 0.1 mph 1.2 mph 75 % 0.00 in
02:28 62.4 °F 54.4 °F 29.92 in SW 0.4 mph 1.2 mph 75 % 0.00 in
02:33 62.2 °F 54.2 °F 29.93 in Calm     75 % 0.00 in
02:38 62.1 °F 54.1 °F 29.93 in SW 0.4 mph 1.2 mph 75 % 0.00 in
02:43 62.0 °F 54.0 °F 29.92 in Calm   1.2 mph 75 % 0.00 in
02:48 61.8 °F 53.8 °F 29.92 in Calm     75 % 0.00 in
02:53 61.6 °F 54.0 °F 29.92 in SW 1.1 mph 2.3 mph 76 % 0.00 in
02:58 61.5 °F 53.9 °F 29.92 in Calm     76 % 0.00 in
03:04 61.3 °F 53.7 °F 29.92 in Calm   1.2 mph 76 % 0.00 in
03:09 61.2 °F 53.6 °F 29.92 in Calm     76 % 0.00 in
03:14 61.0 °F 53.7 °F 29.92 in Calm     77 % 0.00 in
03:19 60.7 °F 53.8 °F 29.92 in Calm     78 % 0.00 in
03:24 60.5 °F 53.6 °F 29.92 in Calm     78 % 0.00 in
03:29 60.2 °F 53.7 °F 29.91 in Calm     79 % 0.00 in
03:34 59.9 °F 53.4 °F 29.92 in Calm     79 % 0.00 in
03:39 59.7 °F 53.2 °F 29.92 in Calm     79 % 0.00 in
03:44 59.4 °F 53.2 °F 29.92 in SW 1.1 mph 2.0 mph 80 % 0.00 in
03:49 59.1 °F 53.3 °F 29.92 in SW 1.9 mph 3.5 mph 81 % 0.00 in
03:55 58.9 °F 53.1 °F 29.92 in SW 1.0 mph 1.2 mph 81 % 0.00 in
04:00 58.7 °F 53.2 °F 29.92 in SW 0.4 mph 1.2 mph 82 % 0.00 in
04:05 58.5 °F 53.0 °F 29.92 in Calm     82 % 0.00 in
04:10 58.3 °F 52.8 °F 29.92 in Calm     82 % 0.00 in
04:15 58.1 °F 52.6 °F 29.92 in Calm     82 % 0.00 in
04:20 57.9 °F 52.4 °F 29.92 in SW 0.5 mph 1.2 mph 82 % 0.00 in
04:25 57.7 °F 52.6 °F 29.92 in SW 0.3 mph 1.2 mph 83 % 0.00 in
04:30 57.6 °F 52.5 °F 29.92 in SW 0.3 mph 1.2 mph 83 % 0.00 in
04:35 57.4 °F 52.6 °F 29.92 in SW 1.1 mph 2.3 mph 84 % 0.00 in
04:40 57.3 °F 52.5 °F 29.92 in SW 0.4 mph 1.2 mph 84 % 0.00 in
04:46 57.2 °F 52.4 °F 29.92 in SW 0.2 mph 1.2 mph 84 % 0.00 in
04:51 57.1 °F 52.3 °F 29.93 in SW 0.5 mph 2.3 mph 84 % 0.00 in
05:01 56.8 °F 52.3 °F 29.93 in SW 0.4 mph 1.2 mph 85 % 0.00 in
05:06 56.7 °F 52.2 °F 29.92 in Calm     85 % 0.00 in
05:11 56.6 °F 52.1 °F 29.92 in Calm     85 % 0.00 in
05:16 56.5 °F 52.0 °F 29.92 in Calm     85 % 0.00 in
05:21 56.5 °F 52.0 °F 29.93 in Calm     85 % 0.00 in
05:26 56.4 °F 51.9 °F 29.92 in Calm     85 % 0.00 in
05:37 56.2 °F 51.7 °F 29.92 in Calm     85 % 0.00 in
05:42 56.0 °F 51.6 °F 29.92 in SW 0.1 mph 1.0 mph 85 % 0.00 in
05:57 55.8 °F 51.4 °F 29.93 in Calm     85 % 0.00 in
06:02 55.7 °F 51.3 °F 29.93 in Calm     85 % 0.00 in
06:07 55.7 °F 51.6 °F 29.93 in Calm     86 % 0.00 in
06:12 55.7 °F 51.6 °F 29.93 in Calm     86 % 0.00 in
06:22 55.9 °F 52.4 °F 29.93 in Calm     88 % 0.00 in
06:28 56.1 °F 52.9 °F 29.93 in SW 0.6 mph 1.2 mph 89 % 0.00 in
06:33 56.4 °F 53.2 °F 29.93 in SW 1.5 mph 2.3 mph 89 % 0.00 in
06:38 56.8 °F 53.6 °F 29.93 in SW 1.8 mph 3.5 mph 89 % 0.00 in
06:43 57.2 °F 54.0 °F 29.93 in SW 1.0 mph 2.3 mph 89 % 0.00 in
06:48 57.8 °F 54.3 °F 29.94 in SW 1.1 mph 2.3 mph 88 % 0.00 in
06:53 58.4 °F 54.5 °F 29.94 in WSW 1.6 mph 3.5 mph 87 % 0.00 in
06:58 59.1 °F 54.6 °F 29.94 in WSW 0.7 mph 2.3 mph 85 % 0.00 in
07:03 60.0 °F 54.8 °F 29.94 in WSW 2.7 mph 3.5 mph 83 % 0.00 in
07:08 60.9 °F 54.7 °F 29.94 in SW 0.9 mph 4.6 mph 80 % 0.00 in
07:13 61.8 °F 55.2 °F 29.94 in WSW 1.3 mph 4.6 mph 79 % 0.00 in
07:19 62.6 °F 55.6 °F 29.94 in WSW 1.2 mph 5.8 mph 78 % 0.00 in
07:24 63.5 °F 55.8 °F 29.94 in WSW 4.1 mph 5.8 mph 76 % 0.00 in
07:29 64.4 °F 55.9 °F 29.95 in WNW 2.9 mph 4.6 mph 74 % 0.00 in
07:34 65.0 °F 55.4 °F 29.95 in West 1.2 mph 3.5 mph 71 % 0.00 in
07:39 65.5 °F 55.5 °F 29.95 in WSW 3.2 mph 6.0 mph 70 % 0.00 in
07:44 65.8 °F 55.3 °F 29.95 in SW 1.8 mph 3.5 mph 69 % 0.00 in
07:49 66.0 °F 55.1 °F 29.95 in WSW 3.6 mph 5.8 mph 68 % 0.00 in
07:54 66.1 °F 55.2 °F 29.96 in WNW 3.9 mph 5.8 mph 68 % 0.00 in
07:59 66.2 °F 55.3 °F 29.95 in West 1.9 mph 3.5 mph 68 % 0.00 in
08:10 66.4 °F 54.7 °F 29.95 in SW 2.8 mph 5.8 mph 66 % 0.00 in
08:15 66.6 °F 55.7 °F 29.96 in WSW 1.5 mph 4.6 mph 68 % 0.00 in
08:20 66.8 °F 55.9 °F 29.96 in WSW 1.1 mph 6.0 mph 68 % 0.00 in
08:25 67.0 °F 55.7 °F 29.96 in West 2.4 mph 4.6 mph 67 % 0.00 in
08:30 67.2 °F 55.0 °F 29.96 in WNW 2.5 mph 4.6 mph 65 % 0.00 in
08:35 67.5 °F 55.7 °F 29.96 in WNW 0.8 mph 3.5 mph 66 % 0.00 in
08:40 67.8 °F 56.0 °F 29.96 in NNW 1.0 mph 2.3 mph 66 % 0.00 in
08:45 68.1 °F 55.5 °F 29.96 in WNW 2.2 mph 4.6 mph 64 % 0.00 in
08:50 68.4 °F 55.3 °F 29.96 in NW 2.8 mph 4.6 mph 63 % 0.00 in
08:55 68.6 °F 55.9 °F 29.96 in SW 1.2 mph 3.5 mph 64 % 0.00 in
09:01 68.8 °F 55.7 °F 29.96 in WSW 3.0 mph 5.0 mph 63 % 0.00 in
09:06 68.9 °F 55.8 °F 29.95 in West 4.0 mph 6.0 mph 63 % 0.00 in
09:11 69.1 °F 56.4 °F 29.95 in SW 1.2 mph 3.5 mph 64 % 0.00 in
09:21 69.5 °F 57.2 °F 29.95 in West 2.0 mph 3.5 mph 65 % 0.00 in
09:26 69.8 °F 57.1 °F 29.95 in WSW 2.3 mph 3.5 mph 64 % 0.00 in
09:31 70.1 °F 57.4 °F 29.95 in SW 2.9 mph 8.1 mph 64 % 0.00 in
09:36 70.4 °F 57.2 °F 29.95 in SW 4.2 mph 6.0 mph 63 % 0.00 in
09:41 70.9 °F 57.7 °F 29.95 in WSW 3.3 mph 4.6 mph 63 % 0.00 in
09:46 71.5 °F 57.3 °F 29.95 in WSW 3.0 mph 4.6 mph 61 % 0.00 in
09:52 72.4 °F 56.8 °F 29.95 in WSW 4.8 mph 6.0 mph 58 % 0.00 in
09:57 73.4 °F 57.2 °F 29.95 in WSW 1.9 mph 4.6 mph 57 % 0.00 in
10:07 75.5 °F 57.2 °F 29.95 in WNW 1.5 mph 3.5 mph 53 % 0.00 in
10:12 76.6 °F 57.1 °F 29.94 in WNW 3.5 mph 5.0 mph 51 % 0.00 in
10:17 77.5 °F 57.4 °F 29.94 in West 1.5 mph 2.3 mph 50 % 0.00 in
10:22 78.4 °F 59.3 °F 29.94 in SW 2.1 mph 5.8 mph 52 % 0.00 in
10:27 79.1 °F 57.1 °F 29.94 in WNW 4.1 mph 5.8 mph 47 % 0.00 in
10:32 80.1 °F 58.6 °F 29.94 in SW 1.5 mph 3.5 mph 48 % 0.00 in
10:37 81.0 °F 59.5 °F 29.94 in WNW 2.5 mph 3.5 mph 48 % 0.00 in
10:43 81.7 °F 60.7 °F 29.94 in SSW 1.4 mph 3.5 mph 49 % 0.00 in
10:48 82.1 °F 56.7 °F 29.94 in West 1.4 mph 5.8 mph 42 % 0.00 in
10:53 82.5 °F 57.7 °F 29.93 in SW 1.2 mph 4.6 mph 43 % 0.00 in
10:58 83.0 °F 58.2 °F 29.94 in NW 2.4 mph 4.6 mph 43 % 0.00 in
11:08 83.5 °F 57.3 °F 29.93 in North 0.9 mph 3.5 mph 41 % 0.00 in
11:13 83.8 °F 56.2 °F 29.93 in WNW 3.4 mph 5.8 mph 39 % 0.00 in
11:18 84.1 °F 59.2 °F 29.93 in SW 1.9 mph 3.0 mph 43 % 0.00 in
11:24 84.1 °F 55.0 °F 29.93 in NW 3.7 mph 5.8 mph 37 % 0.00 in
11:29 84.4 °F 58.1 °F 29.93 in NNW 1.6 mph 3.5 mph 41 % 0.00 in
11:34 84.7 °F 57.7 °F 29.92 in West 3.2 mph 5.8 mph 40 % 0.00 in
11:39 85.0 °F 60.0 °F 29.92 in WNW 2.2 mph 4.6 mph 43 % 0.00 in
11:44 85.1 °F 60.1 °F 29.92 in NW 2.3 mph 4.0 mph 43 % 0.00 in
11:49 85.3 °F 56.8 °F 29.92 in WSW 1.8 mph 4.6 mph 38 % 0.00 in
11:54 85.5 °F 58.4 °F 29.92 in WNW 0.7 mph 3.5 mph 40 % 0.00 in
11:59 85.8 °F 56.5 °F 29.92 in West 1.9 mph 6.9 mph 37 % 0.00 in
12:04 85.9 °F 58.1 °F 29.91 in West 3.1 mph 3.5 mph 39 % 0.00 in
12:15 86.2 °F 59.7 °F 29.92 in West 2.1 mph 2.3 mph 41 % 0.00 in
12:20 86.5 °F 58.6 °F 29.91 in WNW 3.1 mph 5.0 mph 39 % 0.00 in
12:25 86.7 °F 57.3 °F 29.91 in WNW 3.0 mph 3.5 mph 37 % 0.00 in
12:30 87.1 °F 56.9 °F 29.91 in WNW 2.2 mph 4.0 mph 36 % 0.00 in
12:35 87.3 °F 55.5 °F 29.91 in North 2.6 mph 6.0 mph 34 % 0.00 in
12:40 87.2 °F 55.4 °F 29.91 in WSW 2.6 mph 6.9 mph 34 % 0.00 in
12:45 87.1 °F 55.3 °F 29.91 in SW 3.3 mph 6.9 mph 34 % 0.00 in
12:50 87.2 °F 55.4 °F 29.90 in West 2.4 mph 3.5 mph 34 % 0.00 in
12:55 87.1 °F 54.5 °F 29.90 in SSW 2.5 mph 3.5 mph 33 % 0.00 in
13:06 87.1 °F 51.9 °F 29.90 in SSW 5.1 mph 7.0 mph 30 % 0.00 in
13:11 87.0 °F 54.4 °F 29.90 in WNW 1.8 mph 4.6 mph 33 % 0.00 in
13:16 87.2 °F 51.1 °F 29.90 in WSW 5.3 mph 8.1 mph 29 % 0.00 in
13:21 87.1 °F 51.9 °F 29.90 in WSW 3.2 mph 5.8 mph 30 % 0.00 in
13:26 87.2 °F 52.0 °F 29.90 in SSW 3.4 mph 6.0 mph 30 % 0.00 in
13:31 87.4 °F 51.2 °F 29.89 in SW 3.6 mph 4.6 mph 29 % 0.00 in
13:36 87.5 °F 54.0 °F 29.89 in WSW 1.3 mph 3.5 mph 32 % 0.00 in
13:41 87.7 °F 52.4 °F 29.89 in WSW 2.7 mph 3.5 mph 30 % 0.00 in
13:46 87.7 °F 53.3 °F 29.88 in SW 1.4 mph 5.0 mph 31 % 0.00 in
13:51 87.5 °F 51.3 °F 29.88 in SSW 4.0 mph 6.0 mph 29 % 0.00 in
13:57 87.6 °F 52.3 °F 29.88 in WSW 4.4 mph 5.8 mph 30 % 0.00 in
14:02 87.5 °F 52.2 °F 29.87 in SSW 4.3 mph 8.1 mph 30 % 0.00 in
14:12 87.9 °F 51.7 °F 29.87 in WSW 0.9 mph 3.5 mph 29 % 0.00 in
14:17 88.0 °F 52.7 °F 29.87 in WNW 5.6 mph 11.0 mph 30 % 0.00 in
14:22 88.0 °F 51.8 °F 29.87 in WSW 4.2 mph 10.4 mph 29 % 0.00 in
14:27 87.9 °F 54.4 °F 29.86 in West 2.8 mph 5.8 mph 32 % 0.00 in
14:32 87.9 °F 54.4 °F 29.86 in SW 4.0 mph 5.8 mph 32 % 0.00 in
14:37 88.0 °F 53.6 °F 29.86 in NW 4.5 mph 6.9 mph 31 % 0.00 in
14:42 88.3 °F 56.4 °F 29.86 in SSW 1.5 mph 5.8 mph 34 % 0.00 in
14:48 88.5 °F 56.6 °F 29.86 in SW 2.7 mph 4.6 mph 34 % 0.00 in
14:53 88.6 °F 53.2 °F 29.86 in SW 5.2 mph 6.9 mph 30 % 0.00 in
14:58 88.8 °F 54.3 °F 29.85 in West 1.6 mph 3.5 mph 31 % 0.00 in
15:03 88.9 °F 52.5 °F 29.85 in WSW 3.5 mph 6.9 mph 29 % 0.00 in
15:08 89.0 °F 52.6 °F 29.85 in NNW 2.0 mph 4.6 mph 29 % 0.00 in
15:13 89.2 °F 54.6 °F 29.85 in NNE 1.6 mph 3.0 mph 31 % 0.00 in
15:18 89.2 °F 53.7 °F 29.85 in WNW 1.8 mph 3.5 mph 30 % 0.00 in
15:24 89.4 °F 53.9 °F 29.84 in NNE 2.5 mph 5.0 mph 30 % 0.00 in
15:29 89.3 °F 53.8 °F 29.84 in NNW 0.9 mph 3.5 mph 30 % 0.00 in
15:34 89.2 °F 53.7 °F 29.84 in North 3.9 mph 5.8 mph 30 % 0.00 in
15:40 88.8 °F 52.4 °F 29.84 in NNE 4.1 mph 5.0 mph 29 % 0.00 in
15:45 88.3 °F 52.9 °F 29.84 in NNE 3.9 mph 5.8 mph 30 % 0.00 in
15:50 88.1 °F 53.7 °F 29.84 in North 3.1 mph 4.6 mph 31 % 0.00 in
15:55 88.2 °F 53.7 °F 29.83 in North 2.4 mph 6.0 mph 31 % 0.00 in
16:00 87.9 °F 53.5 °F 29.83 in NNE 1.9 mph 4.6 mph 31 % 0.00 in
16:05 88.0 °F 52.7 °F 29.83 in NNW 2.2 mph 4.0 mph 30 % 0.00 in
16:10 88.2 °F 53.7 °F 29.83 in North 2.5 mph 4.0 mph 31 % 0.00 in
16:15 88.1 °F 53.7 °F 29.83 in NW 1.2 mph 3.5 mph 31 % 0.00 in
16:20 88.1 °F 53.7 °F 29.83 in West 2.0 mph 5.8 mph 31 % 0.00 in
16:25 87.8 °F 53.4 °F 29.83 in NNE 1.5 mph 3.5 mph 31 % 0.00 in
16:31 87.9 °F 53.5 °F 29.82 in SSE 0.7 mph 2.3 mph 31 % 0.00 in
16:36 88.1 °F 52.8 °F 29.82 in SW 0.9 mph 3.5 mph 30 % 0.00 in
16:41 88.4 °F 54.8 °F 29.82 in WSW 2.0 mph 3.5 mph 32 % 0.00 in
16:46 88.4 °F 55.6 °F 29.82 in SW 0.9 mph 3.5 mph 33 % 0.00 in
16:54 87.6 °F 57.3 °F 29.82 in SW 1.4 mph 7.0 mph 36 % 0.00 in
16:59 87.3 °F 56.3 °F 29.82 in SE 0.4 mph 4.0 mph 35 % 0.00 in
17:04 86.8 °F 57.4 °F 29.82 in ESE 1.4 mph 4.6 mph 37 % 0.00 in
17:09 86.0 °F 55.9 °F 29.82 in SW 2.5 mph 3.5 mph 36 % 0.00 in
17:14 85.0 °F 55.1 °F 29.82 in SSE 3.5 mph 8.1 mph 36 % 0.00 in
17:19 84.4 °F 56.7 °F 29.82 in SSW 3.3 mph 4.6 mph 39 % 0.00 in
17:24 84.0 °F 55.7 °F 29.82 in SSW 1.4 mph 5.8 mph 38 % 0.00 in
17:29 83.4 °F 55.8 °F 29.82 in SSW 1.8 mph 3.5 mph 39 % 0.00 in
17:34 83.1 °F 57.0 °F 29.81 in SW 2.8 mph 4.0 mph 41 % 0.00 in
17:40 82.7 °F 56.6 °F 29.81 in SW 3.0 mph 5.8 mph 41 % 0.00 in
17:45 82.3 °F 56.2 °F 29.81 in South 0.6 mph 2.3 mph 41 % 0.00 in
17:50 81.9 °F 56.6 °F 29.81 in SE 3.7 mph 4.6 mph 42 % 0.00 in
17:55 81.3 °F 55.3 °F 29.81 in SSE 3.2 mph 4.6 mph 41 % 0.00 in
18:00 80.5 °F 54.6 °F 29.81 in SE 0.4 mph 3.5 mph 41 % 0.00 in
18:05 80.0 °F 55.5 °F 29.81 in SSW 1.6 mph 3.5 mph 43 % 0.00 in
18:10 79.5 °F 55.0 °F 29.81 in SSW 1.6 mph 4.6 mph 43 % 0.00 in
18:15 79.2 °F 55.4 °F 29.81 in SSW 2.5 mph 5.8 mph 44 % 0.00 in
18:20 78.8 °F 55.7 °F 29.81 in SW 2.2 mph 6.9 mph 45 % 0.00 in
18:25 78.6 °F 56.1 °F 29.81 in SSW 1.7 mph 3.5 mph 46 % 0.00 in
18:30 78.4 °F 55.9 °F 29.81 in WSW 2.9 mph 4.6 mph 46 % 0.00 in
18:35 78.0 °F 56.1 °F 29.81 in SSW 1.7 mph 3.5 mph 47 % 0.00 in
18:40 77.7 °F 56.4 °F 29.81 in SSW 2.3 mph 3.5 mph 48 % 0.00 in
18:45 77.3 °F 56.1 °F 29.81 in SE 2.7 mph 4.6 mph 48 % 0.00 in
18:56 76.7 °F 57.2 °F 29.81 in SE 1.6 mph 4.6 mph 51 % 0.00 in
19:01 76.3 °F 57.4 °F 29.81 in South 2.6 mph 4.6 mph 52 % 0.00 in
19:06 75.9 °F 57.5 °F 29.81 in South 0.2 mph 1.2 mph 53 % 0.00 in
19:11 75.6 °F 57.8 °F 29.81 in SSE 0.3 mph 1.2 mph 54 % 0.00 in
19:16 75.2 °F 57.9 °F 29.81 in SW 0.7 mph 1.2 mph 55 % 0.00 in
19:21 74.9 °F 57.6 °F 29.81 in SW 0.9 mph 3.5 mph 55 % 0.00 in
19:26 74.6 °F 57.9 °F 29.81 in SE 0.5 mph 3.5 mph 56 % 0.00 in
19:31 74.4 °F 57.7 °F 29.81 in South 0.2 mph 2.3 mph 56 % 0.00 in
19:36 74.1 °F 57.9 °F 29.81 in South 0.9 mph 2.3 mph 57 % 0.00 in
19:41 73.9 °F 58.2 °F 29.81 in SSE 0.7 mph 2.3 mph 58 % 0.00 in
19:45 73.7 °F 58.0 °F 29.81 in Calm   2.0 mph 58 % 0.00 in
19:49 73.6 °F 57.9 °F 29.81 in SSE 3.0 mph 3.5 mph 58 % 0.00 in
19:54 73.3 °F 57.6 °F 29.81 in SSE 0.4 mph 3.5 mph 58 % 0.00 in
19:59 73.1 °F 57.9 °F 29.81 in SSE 0.7 mph 2.3 mph 59 % 0.00 in
20:04 73.0 °F 57.8 °F 29.81 in SSE 0.6 mph 2.3 mph 59 % 0.00 in
20:10 72.8 °F 58.1 °F 29.81 in SSE 0.4 mph 2.0 mph 60 % 0.00 in
20:15 72.6 °F 57.9 °F 29.81 in SSE 0.4 mph 1.2 mph 60 % 0.00 in
20:20 72.4 °F 57.7 °F 29.81 in Calm   1.0 mph 60 % 0.00 in
20:25 72.2 °F 58.0 °F 29.81 in South 0.1 mph 2.3 mph 61 % 0.00 in
20:30 72.1 °F 57.9 °F 29.81 in South 0.3 mph 1.2 mph 61 % 0.00 in
20:35 72.0 °F 57.8 °F 29.81 in South 0.8 mph 2.3 mph 61 % 0.00 in
20:40 71.9 °F 58.2 °F 29.81 in South 0.9 mph 2.3 mph 62 % 0.00 in
20:45 71.8 °F 58.1 °F 29.81 in SE 1.4 mph 3.5 mph 62 % 0.00 in
20:50 71.7 °F 58.4 °F 29.81 in SSW 0.5 mph 1.2 mph 63 % 0.00 in
20:55 71.6 °F 58.3 °F 29.81 in SSW 0.1 mph   63 % 0.00 in
21:01 71.5 °F 58.2 °F 29.81 in SE 0.8 mph 1.2 mph 63 % 0.00 in
21:06 71.4 °F 58.1 °F 29.81 in SE 0.2 mph 1.2 mph 63 % 0.00 in
21:11 71.3 °F 58.1 °F 29.81 in Calm   1.2 mph 63 % 0.00 in
21:16 71.3 °F 58.5 °F 29.81 in SE 1.2 mph 3.5 mph 64 % 0.00 in
21:21 71.2 °F 58.8 °F 29.81 in SSE 0.2 mph 1.2 mph 65 % 0.00 in
21:26 71.1 °F 58.7 °F 29.81 in SSE 1.1 mph 2.3 mph 65 % 0.00 in
21:31 70.9 °F 59.0 °F 29.81 in SSE 0.2 mph 1.2 mph 66 % 0.00 in
21:36 70.8 °F 59.3 °F 29.81 in South 0.8 mph 3.5 mph 67 % 0.00 in
21:41 70.7 °F 59.6 °F 29.81 in SSE 1.0 mph 3.0 mph 68 % 0.00 in
21:46 70.6 °F 59.5 °F 29.82 in SSE 0.2 mph 1.2 mph 68 % 0.00 in
21:52 70.5 °F 59.8 °F 29.82 in SSE 0.1 mph 2.3 mph 69 % 0.00 in
21:57 70.3 °F 60.1 °F 29.82 in SSE 0.7 mph 2.3 mph 70 % 0.00 in
22:02 70.2 °F 60.0 °F 29.83 in South 0.6 mph 2.0 mph 70 % 0.00 in
22:07 70.1 °F 60.3 °F 29.83 in Calm   1.0 mph 71 % 0.00 in
22:12 69.9 °F 60.1 °F 29.82 in South 0.2 mph 1.2 mph 71 % 0.00 in
22:17 69.8 °F 60.0 °F 29.82 in SSE 1.2 mph 2.3 mph 71 % 0.00 in
22:22 69.7 °F 60.3 °F 29.82 in SSE 1.4 mph 3.5 mph 72 % 0.00 in
22:32 69.4 °F 60.0 °F 29.82 in South 0.2 mph 3.5 mph 72 % 0.00 in
22:37 69.4 °F 60.0 °F 29.82 in South 0.1 mph 1.0 mph 72 % 0.00 in
22:43 69.4 °F 60.0 °F 29.82 in SW 0.4 mph 1.2 mph 72 % 0.00 in
22:48 69.4 °F 60.0 °F 29.82 in SW 0.2 mph 1.2 mph 72 % 0.00 in
22:53 69.3 °F 59.5 °F 29.82 in Calm   1.2 mph 71 % 0.00 in
22:58 69.3 °F 59.9 °F 29.82 in WSW 0.5 mph 2.0 mph 72 % 0.00 in
23:03 69.2 °F 59.8 °F 29.82 in Calm   1.2 mph 72 % 0.00 in
23:08 69.2 °F 59.8 °F 29.82 in WSW 0.7 mph 3.5 mph 72 % 0.00 in
23:13 69.2 °F 59.8 °F 29.83 in West 0.8 mph 2.3 mph 72 % 0.00 in
23:18 69.2 °F 59.8 °F 29.83 in WSW 0.3 mph 1.0 mph 72 % 0.00 in
23:23 69.1 °F 59.7 °F 29.82 in Calm   1.2 mph 72 % 0.00 in
23:28 69.1 °F 59.7 °F 29.82 in WSW 0.2 mph 1.2 mph 72 % 0.00 in
23:34 69.1 °F 59.7 °F 29.82 in WSW 0.3 mph 1.2 mph 72 % 0.00 in
23:44 69.0 °F 60.0 °F 29.82 in WSW 0.6 mph 1.2 mph 73 % 0.00 in
23:49 69.0 °F 60.0 °F 29.82 in WSW 0.3 mph 1.2 mph 73 % 0.00 in
23:54 69.0 °F 60.0 °F 29.82 in WSW 0.1 mph 1.2 mph 73 % 0.00 in
Crab Meadow Weather
Compliments of Weather Underground - 2.75 mb

Script developed by  Jim McMurry - jmcmurry@mwt.net Adapted for the template by  Wim van der Kuil - Leuven-Template.eu

Extremes: The highest temperature ever recorded in the United States was 134 degrees F at Greenland Ranch in Death Valley, California.